sensor_id;sensor_type;location;lat;lon;timestamp;pressure;altitude;pressure_sealevel;temperature;humidity
55077;BME280;40971;44.702;11.030;2023-05-23T00:06:05;101171.25;;;16.08;90.72
55077;BME280;40971;44.702;11.030;2023-05-23T00:16:08;101166.38;;;16.11;89.95
55077;BME280;40971;44.702;11.030;2023-05-23T00:26:11;101163.56;;;16.34;88.30
55077;BME280;40971;44.702;11.030;2023-05-23T00:36:13;101168.59;;;16.08;87.32
55077;BME280;40971;44.702;11.030;2023-05-23T00:46:16;101174.91;;;15.56;89.72
55077;BME280;40971;44.702;11.030;2023-05-23T00:56:17;101166.50;;;15.53;88.34
55077;BME280;40971;44.702;11.030;2023-05-23T01:06:21;101164.13;;;15.58;89.17
55077;BME280;40971;44.702;11.030;2023-05-23T01:16:45;101164.56;;;15.61;89.59
55077;BME280;40971;44.702;11.030;2023-05-23T01:37:10;101169.97;;;15.24;89.64
55077;BME280;40971;44.702;11.030;2023-05-23T01:47:15;101167.91;;;14.97;91.55
55077;BME280;40971;44.702;11.030;2023-05-23T01:57:19;101163.09;;;15.00;91.94
55077;BME280;40971;44.702;11.030;2023-05-23T02:07:21;101162.22;;;14.71;91.94
55077;BME280;40971;44.702;11.030;2023-05-23T02:17:24;101163.88;;;14.18;92.68
55077;BME280;40971;44.702;11.030;2023-05-23T02:27:26;101160.66;;;14.39;92.40
55077;BME280;40971;44.702;11.030;2023-05-23T02:37:28;101157.59;;;14.50;92.55
55077;BME280;40971;44.702;11.030;2023-05-23T02:47:30;101144.56;;;14.63;92.55
55077;BME280;40971;44.702;11.030;2023-05-23T02:57:32;101150.94;;;14.54;92.76
55077;BME280;40971;44.702;11.030;2023-05-23T03:07:33;101151.47;;;14.49;93.53
55077;BME280;40971;44.702;11.030;2023-05-23T03:17:35;101158.63;;;14.64;91.99
55077;BME280;40971;44.702;11.030;2023-05-23T03:27:36;101156.75;;;14.49;91.61
55077;BME280;40971;44.702;11.030;2023-05-23T03:37:41;101144.00;;;14.53;91.82
55077;BME280;40971;44.702;11.030;2023-05-23T03:47:44;101151.47;;;14.49;92.01
55077;BME280;40971;44.702;11.030;2023-05-23T03:57:49;101164.50;;;14.74;92.32
55077;BME280;40971;44.702;11.030;2023-05-23T04:07:53;101142.47;;;14.36;91.40
55077;BME280;40971;44.702;11.030;2023-05-23T04:17:54;101167.56;;;14.17;93.36
55077;BME280;40971;44.702;11.030;2023-05-23T04:27:57;101171.63;;;14.73;92.40
55077;BME280;40971;44.702;11.030;2023-05-23T04:38:00;101171.22;;;15.13;90.90
55077;BME280;40971;44.702;11.030;2023-05-23T04:48:05;101170.72;;;15.47;90.95
55077;BME280;40971;44.702;11.030;2023-05-23T04:58:08;101173.09;;;15.71;89.85
55077;BME280;40971;44.702;11.030;2023-05-23T05:08:10;101182.50;;;16.10;89.00
55077;BME280;40971;44.702;11.030;2023-05-23T05:18:15;101179.19;;;16.44;88.50
55077;BME280;40971;44.702;11.030;2023-05-23T05:28:17;101186.59;;;16.69;86.83
55077;BME280;40971;44.702;11.030;2023-05-23T05:38:18;101205.19;;;16.69;88.42
55077;BME280;40971;44.702;11.030;2023-05-23T05:48:20;101177.34;;;17.21;87.17
55077;BME280;40971;44.702;11.030;2023-05-23T05:58:21;101180.31;;;17.67;84.87
55077;BME280;40971;44.702;11.030;2023-05-23T06:08:23;101194.13;;;17.96;83.92
55077;BME280;40971;44.702;11.030;2023-05-23T06:18:24;101189.91;;;18.35;83.99
55077;BME280;40971;44.702;11.030;2023-05-23T06:28:27;101191.84;;;18.80;81.88
55077;BME280;40971;44.702;11.030;2023-05-23T06:38:30;101189.72;;;19.35;80.85
55077;BME280;40971;44.702;11.030;2023-05-23T06:48:34;101184.72;;;20.15;78.51
55077;BME280;40971;44.702;11.030;2023-05-23T06:58:35;101181.72;;;21.17;73.14
55077;BME280;40971;44.702;11.030;2023-05-23T07:08:38;101181.13;;;22.18;68.57
55077;BME280;40971;44.702;11.030;2023-05-23T07:18:40;101178.41;;;22.77;64.69
55077;BME280;40971;44.702;11.030;2023-05-23T07:28:42;101183.41;;;23.43;62.74
55077;BME280;40971;44.702;11.030;2023-05-23T07:38:43;101185.53;;;24.54;58.71
55077;BME280;40971;44.702;11.030;2023-05-23T07:48:45;101199.66;;;24.78;59.74
55077;BME280;40971;44.702;11.030;2023-05-23T07:58:50;101178.66;;;25.30;56.73
55077;BME280;40971;44.702;11.030;2023-05-23T08:08:51;101182.84;;;25.81;54.45
55077;BME280;40971;44.702;11.030;2023-05-23T08:18:53;101182.53;;;25.77;53.25
55077;BME280;40971;44.702;11.030;2023-05-23T08:28:55;101177.50;;;26.66;53.20
55077;BME280;40971;44.702;11.030;2023-05-23T08:38:58;101178.78;;;27.32;51.32
55077;BME280;40971;44.702;11.030;2023-05-23T08:49:01;101172.47;;;27.73;50.08
55077;BME280;40971;44.702;11.030;2023-05-23T08:59:03;101174.25;;;28.40;47.95
55077;BME280;40971;44.702;11.030;2023-05-23T09:09:05;101183.47;;;28.54;47.85
55077;BME280;40971;44.702;11.030;2023-05-23T09:19:11;101183.44;;;28.89;48.42
55077;BME280;40971;44.702;11.030;2023-05-23T09:29:13;101182.03;;;29.32;46.38
55077;BME280;40971;44.702;11.030;2023-05-23T09:39:16;101175.91;;;28.61;46.69
55077;BME280;40971;44.702;11.030;2023-05-23T09:49:17;101158.47;;;29.33;44.36
55077;BME280;40971;44.702;11.030;2023-05-23T09:59:20;101145.00;;;29.72;46.02
55077;BME280;40971;44.702;11.030;2023-05-23T10:09:27;101159.06;;;30.62;43.59
55077;BME280;40971;44.702;11.030;2023-05-23T10:19:42;101153.72;;;30.13;42.90
55077;BME280;40971;44.702;11.030;2023-05-23T10:29:48;101153.75;;;30.46;41.43
55077;BME280;40971;44.702;11.030;2023-05-23T10:50:12;101136.84;;;31.12;39.24
55077;BME280;40971;44.702;11.030;2023-05-23T11:00:15;101119.78;;;31.73;36.07
55077;BME280;40971;44.702;11.030;2023-05-23T11:10:18;101123.59;;;31.71;35.29
55077;BME280;40971;44.702;11.030;2023-05-23T11:20:25;101129.97;;;32.69;33.90
55077;BME280;40971;44.702;11.030;2023-05-23T11:30:29;101117.06;;;32.42;30.63
55077;BME280;40971;44.702;11.030;2023-05-23T11:40:36;101102.56;;;31.96;27.56
55077;BME280;40971;44.702;11.030;2023-05-23T11:50:50;101098.97;;;32.00;32.21
55077;BME280;40971;44.702;11.030;2023-05-23T12:01:00;101078.19;;;31.53;34.68
55077;BME280;40971;44.702;11.030;2023-05-23T12:11:04;101061.16;;;33.81;31.14
55077;BME280;40971;44.702;11.030;2023-05-23T12:21:06;101049.78;;;33.65;22.42
55077;BME280;40971;44.702;11.030;2023-05-23T12:31:13;101047.25;;;33.55;23.91
55077;BME280;40971;44.702;11.030;2023-05-23T12:41:18;101035.47;;;34.35;28.13
55077;BME280;40971;44.702;11.030;2023-05-23T12:51:22;101020.69;;;35.40;28.01
55077;BME280;40971;44.702;11.030;2023-05-23T13:01:24;101002.75;;;34.83;25.28
55077;BME280;40971;44.702;11.030;2023-05-23T13:11:26;100996.75;;;31.81;26.89
55077;BME280;40971;44.702;11.030;2023-05-23T13:21:31;100970.75;;;32.07;30.44
55077;BME280;40971;44.702;11.030;2023-05-23T13:31:35;100964.06;;;31.99;26.77
55077;BME280;40971;44.702;11.030;2023-05-23T13:41:39;100957.25;;;30.95;27.38
55077;BME280;40971;44.702;11.030;2023-05-23T13:51:43;100940.81;;;32.07;24.24
55077;BME280;40971;44.702;11.030;2023-05-23T14:01:47;100936.69;;;32.91;27.08
55077;BME280;40971;44.702;11.030;2023-05-23T14:11:49;100918.66;;;33.39;24.33
55077;BME280;40971;44.702;11.030;2023-05-23T14:21:52;100929.41;;;31.22;26.27
55077;BME280;40971;44.702;11.030;2023-05-23T14:31:58;100934.91;;;32.59;23.58
55077;BME280;40971;44.702;11.030;2023-05-23T14:42:01;100930.13;;;32.78;25.61
55077;BME280;40971;44.702;11.030;2023-05-23T14:52:03;100935.66;;;31.41;26.55
55077;BME280;40971;44.702;11.030;2023-05-23T15:02:07;100933.63;;;31.14;26.29
55077;BME280;40971;44.702;11.030;2023-05-23T15:12:08;100921.56;;;32.03;27.08
55077;BME280;40971;44.702;11.030;2023-05-23T15:22:11;100907.69;;;32.59;23.12
55077;BME280;40971;44.702;11.030;2023-05-23T15:32:15;100904.19;;;31.86;24.21
55077;BME280;40971;44.702;11.030;2023-05-23T15:42:17;100894.00;;;31.78;25.46
55077;BME280;40971;44.702;11.030;2023-05-23T15:52:19;100889.16;;;31.75;26.31
55077;BME280;40971;44.702;11.030;2023-05-23T16:02:21;100889.94;;;31.10;28.17
55077;BME280;40971;44.702;11.030;2023-05-23T16:12:23;100876.81;;;30.99;25.59
55077;BME280;40971;44.702;11.030;2023-05-23T16:22:24;100880.38;;;31.32;28.67
55077;BME280;40971;44.702;11.030;2023-05-23T16:32:27;100880.47;;;30.71;29.56
55077;BME280;40971;44.702;11.030;2023-05-23T16:42:30;100875.75;;;30.10;29.59
55077;BME280;40971;44.702;11.030;2023-05-23T16:52:31;100866.13;;;29.41;30.67
55077;BME280;40971;44.702;11.030;2023-05-23T17:02:33;100873.22;;;29.32;31.86
55077;BME280;40971;44.702;11.030;2023-05-23T17:12:37;100886.81;;;29.61;31.99
55077;BME280;40971;44.702;11.030;2023-05-23T17:22:39;100885.16;;;29.31;30.69
55077;BME280;40971;44.702;11.030;2023-05-23T17:32:45;100901.00;;;29.09;33.65
55077;BME280;40971;44.702;11.030;2023-05-23T17:42:47;100916.47;;;28.40;37.35
55077;BME280;40971;44.702;11.030;2023-05-23T17:52:51;100923.56;;;28.00;39.67
55077;BME280;40971;44.702;11.030;2023-05-23T18:02:52;100932.81;;;27.79;51.54
55077;BME280;40971;44.702;11.030;2023-05-23T18:12:54;100923.53;;;27.04;51.86
55077;BME280;40971;44.702;11.030;2023-05-23T18:22:58;100945.25;;;26.16;61.22
55077;BME280;40971;44.702;11.030;2023-05-23T18:33:00;100954.09;;;25.21;60.78
55077;BME280;40971;44.702;11.030;2023-05-23T18:43:02;100956.66;;;24.46;61.04
55077;BME280;40971;44.702;11.030;2023-05-23T19:03:16;100993.06;;;22.74;60.41
55077;BME280;40971;44.702;11.030;2023-05-23T19:13:18;100988.50;;;22.62;60.73
55077;BME280;40971;44.702;11.030;2023-05-23T19:23:20;101004.25;;;22.36;61.91
55077;BME280;40971;44.702;11.030;2023-05-23T19:33:22;101002.50;;;22.18;61.97
55077;BME280;40971;44.702;11.030;2023-05-23T19:43:24;101012.53;;;22.57;59.87
55077;BME280;40971;44.702;11.030;2023-05-23T19:53:28;101034.78;;;22.35;59.78
55077;BME280;40971;44.702;11.030;2023-05-23T20:03:30;101047.22;;;21.76;61.86
55077;BME280;40971;44.702;11.030;2023-05-23T20:13:32;101035.88;;;21.33;63.54
55077;BME280;40971;44.702;11.030;2023-05-23T20:23:33;101054.44;;;21.28;65.63
55077;BME280;40971;44.702;11.030;2023-05-23T20:33:36;101048.44;;;20.96;63.91
55077;BME280;40971;44.702;11.030;2023-05-23T20:43:40;101051.59;;;20.19;67.39
55077;BME280;40971;44.702;11.030;2023-05-23T20:53:44;101050.72;;;19.69;70.64
55077;BME280;40971;44.702;11.030;2023-05-23T21:03:45;101050.66;;;19.44;71.61
55077;BME280;40971;44.702;11.030;2023-05-23T21:13:50;101054.06;;;19.58;73.54
55077;BME280;40971;44.702;11.030;2023-05-23T21:23:51;101073.13;;;19.68;70.72
55077;BME280;40971;44.702;11.030;2023-05-23T21:33:53;101065.53;;;19.65;71.35
55077;BME280;40971;44.702;11.030;2023-05-23T21:43:57;101057.78;;;19.57;71.31
55077;BME280;40971;44.702;11.030;2023-05-23T21:53:59;101069.03;;;19.01;76.08
55077;BME280;40971;44.702;11.030;2023-05-23T22:04:00;101069.91;;;18.82;76.57
55077;BME280;40971;44.702;11.030;2023-05-23T22:14:05;101039.44;;;18.52;78.92
55077;BME280;40971;44.702;11.030;2023-05-23T22:24:10;101052.13;;;18.11;82.19
55077;BME280;40971;44.702;11.030;2023-05-23T22:34:11;101056.22;;;18.20;81.99
55077;BME280;40971;44.702;11.030;2023-05-23T22:44:14;101058.00;;;17.26;82.72
55077;BME280;40971;44.702;11.030;2023-05-23T22:54:19;101054.59;;;17.38;81.82
55077;BME280;40971;44.702;11.030;2023-05-23T23:04:24;101067.84;;;16.91;84.05
55077;BME280;40971;44.702;11.030;2023-05-23T23:14:26;101073.50;;;17.16;84.06
55077;BME280;40971;44.702;11.030;2023-05-23T23:24:28;101070.94;;;17.35;83.40
55077;BME280;40971;44.702;11.030;2023-05-23T23:34:30;101074.34;;;17.23;83.05
55077;BME280;40971;44.702;11.030;2023-05-23T23:44:32;101071.75;;;16.95;84.99
55077;BME280;40971;44.702;11.030;2023-05-23T23:54:37;101069.13;;;16.67;86.04
